Time;durP1;ratioP1;P1;durP2;ratioP2;P2;SDS_P1;SDS_P2;PMS_P1;PMS_P2;Temp;Humidity;BMP_temperature;BMP_pressure;BME280_temperature;BME280_humidity;BME280_pressure;Samples;Min_cycle;Max_cycle;Signal;HPM_P1;HPM_P2
2020/12/03 00:00:54;;;;;;;65.10;27.65;;;0.90;99.90;;;;;;5095581;28;20036;-74
2020/12/03 00:03:28;;;;;;;71.55;27.55;;;0.80;99.90;;;;;;5095917;28;20373;-73
2020/12/03 00:05:59;;;;;;;63.72;26.45;;;0.80;99.90;;;;;;5096380;28;20051;-74
2020/12/03 00:08:29;;;;;;;77.25;27.88;;;0.80;99.90;;;;;;5096063;28;20048;-75
2020/12/03 00:10:55;;;;;;;76.38;28.92;;;0.80;99.90;;;;;;5096516;28;20453;-74
2020/12/03 00:13:25;;;;;;;70.45;28.38;;;0.80;99.90;;;;;;5097141;28;20043;-74
2020/12/03 00:15:54;;;;;;;72.35;27.65;;;0.80;99.90;;;;;;5095159;28;20055;-74
2020/12/03 00:18:21;;;;;;;76.50;30.13;;;0.80;99.90;;;;;;5095605;28;20365;-74
2020/12/03 00:20:47;;;;;;;78.93;29.58;;;0.80;99.90;;;;;;5093737;28;20469;-74
2020/12/03 00:23:14;;;;;;;74.70;27.55;;;0.80;99.90;;;;;;5095499;28;20054;-74
2020/12/03 00:25:40;;;;;;;77.57;31.58;;;0.80;99.90;;;;;;5094035;28;20380;-74
2020/12/03 00:28:07;;;;;;;69.53;28.38;;;0.80;99.90;;;;;;5077728;28;20051;-74
2020/12/03 00:30:33;;;;;;;74.93;28.63;;;0.80;99.90;;;;;;5094506;28;20032;-74
2020/12/03 00:32:59;;;;;;;82.15;30.48;;;0.70;99.90;;;;;;5095651;28;20056;-74
2020/12/03 00:35:26;;;;;;;74.30;30.15;;;0.80;99.90;;;;;;5094784;28;20032;-76
2020/12/03 00:37:53;;;;;;;77.80;30.20;;;0.80;99.90;;;;;;5099088;28;20397;-74
2020/12/03 00:40:21;;;;;;;106.40;42.15;;;0.80;99.90;;;;;;5095438;28;20075;-74
2020/12/03 00:42:48;;;;;;;341.70;150.43;;;0.70;99.90;;;;;;5094272;28;20414;-74
2020/12/03 00:45:15;;;;;;;109.07;47.95;;;0.80;99.90;;;;;;5095551;28;20024;-74
2020/12/03 00:47:42;;;;;;;312.42;124.70;;;0.70;99.90;;;;;;5076674;28;20040;-74
2020/12/03 00:50:14;;;;;;;177.45;64.55;;;0.70;99.90;;;;;;5093921;28;20052;-74
2020/12/03 00:52:41;;;;;;;104.70;43.63;;;0.70;99.90;;;;;;5092818;28;20051;-74
2020/12/03 00:55:08;;;;;;;159.98;60.72;;;0.70;99.90;;;;;;5094679;28;20393;-74
2020/12/03 00:57:36;;;;;;;94.88;34.20;;;0.70;99.90;;;;;;5094694;28;20457;-74
2020/12/03 01:00:07;;;;;;;257.10;103.93;;;0.70;99.90;;;;;;5093210;28;20052;-74
2020/12/03 01:02:33;;;;;;;124.45;48.92;;;0.70;99.90;;;;;;5094155;28;20054;-73
2020/12/03 01:05:00;;;;;;;88.68;32.70;;;0.70;99.90;;;;;;5094605;28;20024;-73
2020/12/03 01:07:27;;;;;;;90.43;33.75;;;0.70;99.90;;;;;;5094791;28;20036;-75
2020/12/03 01:09:53;;;;;;;111.13;39.97;;;0.70;99.90;;;;;;5093884;28;20040;-74
2020/12/03 01:12:19;;;;;;;89.38;34.70;;;0.70;99.90;;;;;;5094531;28;20027;-74
2020/12/03 01:14:46;;;;;;;117.10;45.42;;;0.70;99.90;;;;;;5093744;28;20032;-74
2020/12/03 01:17:14;;;;;;;78.15;33.38;;;0.70;99.90;;;;;;5094284;28;20035;-74
2020/12/03 01:19:41;;;;;;;564.35;280.02;;;0.70;99.90;;;;;;5094278;28;20032;-74
2020/12/03 01:22:08;;;;;;;168.95;75.90;;;0.70;99.90;;;;;;5094321;28;20028;-74
2020/12/03 01:24:35;;;;;;;112.65;46.78;;;0.70;99.90;;;;;;5092200;28;20040;-74
2020/12/03 01:27:03;;;;;;;94.13;36.13;;;0.70;99.90;;;;;;5093832;28;20495;-74
2020/12/03 01:29:29;;;;;;;98.07;35.08;;;0.70;99.90;;;;;;5094026;28;20028;-74
2020/12/03 01:31:55;;;;;;;101.25;37.45;;;0.70;99.90;;;;;;5094250;28;20040;-73
2020/12/03 01:34:22;;;;;;;133.57;49.65;;;0.70;99.90;;;;;;5093118;28;20373;-73
2020/12/03 01:36:52;;;;;;;146.30;59.90;;;0.70;99.90;;;;;;5092097;28;20040;-74
2020/12/03 01:39:19;;;;;;;186.02;76.22;;;0.70;99.90;;;;;;5093486;28;20032;-73
2020/12/03 01:41:47;;;;;;;125.47;49.10;;;0.70;99.90;;;;;;5093839;28;20028;-74
2020/12/03 01:44:14;;;;;;;101.78;37.38;;;0.70;99.90;;;;;;5092846;28;20626;-73
2020/12/03 01:46:41;;;;;;;249.70;112.13;;;0.70;99.90;;;;;;5092227;28;20047;-74
2020/12/03 01:49:21;;;;;;;124.32;49.25;;;0.70;99.90;;;;;;5094483;28;20032;-73
2020/12/03 01:51:53;;;;;;;114.28;42.95;;;0.70;99.90;;;;;;5093388;28;20028;-74
2020/12/03 01:54:21;;;;;;;114.45;42.00;;;0.70;99.90;;;;;;5093691;28;20043;-73
2020/12/03 01:57:04;;;;;;;94.85;37.72;;;0.70;99.90;;;;;;5093677;28;20032;-74
2020/12/03 01:59:47;;;;;;;108.45;42.75;;;0.80;99.90;;;;;;5094378;28;20051;-75
2020/12/03 02:02:16;;;;;;;142.93;58.45;;;0.80;99.90;;;;;;5094501;28;20047;-73
2020/12/03 02:04:43;;;;;;;134.80;52.80;;;0.80;99.90;;;;;;5094287;28;20024;-72
2020/12/03 02:07:12;;;;;;;129.73;52.35;;;0.80;99.90;;;;;;5094549;28;20496;-73
2020/12/03 02:09:39;;;;;;;101.15;35.95;;;0.80;99.90;;;;;;5093823;28;20045;-73
2020/12/03 02:12:05;;;;;;;90.65;32.05;;;0.80;99.90;;;;;;5092205;28;20393;-73
2020/12/03 02:14:32;;;;;;;91.45;32.83;;;0.80;99.90;;;;;;5093793;28;20039;-74
2020/12/03 02:16:58;;;;;;;285.67;118.63;;;0.80;99.90;;;;;;5093392;28;20028;-73
2020/12/03 02:19:32;;;;;;;144.25;55.80;;;0.90;99.90;;;;;;5092919;28;20039;-73
2020/12/03 02:22:04;;;;;;;156.57;56.88;;;0.90;99.90;;;;;;5093478;28;20059;-74
2020/12/03 02:24:41;;;;;;;100.03;36.83;;;0.80;99.90;;;;;;5093315;28;20039;-73
2020/12/03 02:27:10;;;;;;;103.97;38.05;;;0.90;99.90;;;;;;5076310;28;20473;-72
2020/12/03 02:29:37;;;;;;;131.93;47.17;;;0.80;99.90;;;;;;5092513;28;20373;-75
2020/12/03 02:32:04;;;;;;;100.38;36.60;;;0.80;99.90;;;;;;5093359;28;20052;-75
2020/12/03 02:34:31;;;;;;;254.88;93.97;;;0.80;99.90;;;;;;5092991;28;20109;-74
2020/12/03 02:37:00;;;;;;;117.63;46.60;;;0.80;99.90;;;;;;5092475;28;20032;-74
2020/12/03 02:39:28;;;;;;;133.63;49.45;;;0.80;99.90;;;;;;5091021;28;20048;-74
2020/12/03 02:41:55;;;;;;;135.23;53.72;;;0.80;99.90;;;;;;5091864;28;20036;-75
2020/12/03 02:44:21;;;;;;;179.68;73.72;;;0.80;99.90;;;;;;5092807;28;20039;-75
2020/12/03 02:46:48;;;;;;;118.75;49.63;;;0.80;99.90;;;;;;5091876;28;20024;-74
2020/12/03 02:49:15;;;;;;;162.25;71.15;;;0.80;99.90;;;;;;5091142;28;20039;-75
2020/12/03 02:51:42;;;;;;;81.55;34.00;;;0.80;99.90;;;;;;5091912;28;20043;-75
2020/12/03 02:54:10;;;;;;;144.88;63.88;;;0.80;99.90;;;;;;5092527;28;20040;-74
2020/12/03 02:56:37;;;;;;;100.97;37.55;;;0.80;99.90;;;;;;5090635;28;20035;-75
2020/12/03 02:59:07;;;;;;;89.85;35.15;;;0.80;99.90;;;;;;5092440;28;20048;-74
2020/12/03 03:01:34;;;;;;;131.18;57.40;;;0.80;99.90;;;;;;5091868;28;20043;-76
2020/12/03 03:04:03;;;;;;;93.95;41.72;;;0.80;99.90;;;;;;5091985;28;20039;-75
2020/12/03 03:06:31;;;;;;;127.22;54.47;;;0.80;99.90;;;;;;5091412;28;20051;-75
2020/12/03 03:08:57;;;;;;;79.40;31.73;;;0.80;99.90;;;;;;5091555;28;20036;-75
2020/12/03 03:11:23;;;;;;;123.18;46.22;;;0.80;99.90;;;;;;5091342;28;20028;-74
2020/12/03 03:13:50;;;;;;;194.25;75.35;;;0.80;99.90;;;;;;5090174;28;20491;-75
2020/12/03 03:16:16;;;;;;;100.05;38.80;;;0.80;99.90;;;;;;5092227;28;20033;-75
2020/12/03 03:18:42;;;;;;;133.85;51.58;;;0.80;99.90;;;;;;5091454;28;20377;-75
2020/12/03 03:21:09;;;;;;;113.53;45.83;;;0.80;99.90;;;;;;5092134;28;20043;-74
2020/12/03 03:23:36;;;;;;;212.25;78.10;;;0.80;99.90;;;;;;5090592;28;20032;-75
2020/12/03 03:26:03;;;;;;;106.57;41.28;;;0.80;99.90;;;;;;5095877;28;20032;-74
2020/12/03 03:28:29;;;;;;;104.68;37.97;;;0.80;99.90;;;;;;5095648;28;20376;-74
2020/12/03 03:30:55;;;;;;;76.55;30.92;;;0.80;99.90;;;;;;5095127;28;21290;-74
2020/12/03 03:33:22;;;;;;;96.25;35.63;;;0.80;99.90;;;;;;5094461;28;20047;-74
2020/12/03 03:35:48;;;;;;;78.15;34.05;;;0.80;99.90;;;;;;5095236;28;20388;-75
2020/12/03 03:38:15;;;;;;;88.30;33.55;;;0.80;99.90;;;;;;5096096;28;20059;-75
2020/12/03 03:40:41;;;;;;;88.88;34.65;;;0.80;99.90;;;;;;5095499;28;20036;-75
2020/12/03 03:43:07;;;;;;;86.57;31.52;;;0.80;99.90;;;;;;5096287;28;20039;-75
2020/12/03 03:45:34;;;;;;;177.18;68.88;;;0.80;99.90;;;;;;5098973;28;20039;-75
2020/12/03 03:48:01;;;;;;;168.00;69.30;;;0.80;99.90;;;;;;5097015;28;20024;-75
2020/12/03 03:50:28;;;;;;;99.22;37.92;;;0.90;99.90;;;;;;5096305;28;20039;-76
2020/12/03 03:52:54;;;;;;;106.10;40.95;;;0.80;99.90;;;;;;5095440;28;20039;-74
2020/12/03 03:55:20;;;;;;;93.88;36.28;;;0.80;99.90;;;;;;5095574;28;20426;-74
2020/12/03 03:57:47;;;;;;;95.13;35.70;;;0.80;99.90;;;;;;5094659;28;20039;-75
2020/12/03 04:00:18;;;;;;;246.40;86.35;;;0.90;99.90;;;;;;5095004;28;20389;-75
2020/12/03 04:02:46;;;;;;;125.90;46.40;;;0.80;99.90;;;;;;5093799;28;20040;-75
2020/12/03 04:05:14;;;;;;;112.22;38.38;;;0.90;99.90;;;;;;5095278;28;20039;-74
2020/12/03 04:07:40;;;;;;;283.25;91.03;;;0.80;99.90;;;;;;5094175;28;20051;-75
2020/12/03 04:10:07;;;;;;;177.57;61.30;;;0.80;99.90;;;;;;5095556;28;20047;-75
2020/12/03 04:12:34;;;;;;;119.32;46.50;;;0.80;99.90;;;;;;5094844;28;20504;-75
2020/12/03 04:15:02;;;;;;;108.53;37.33;;;0.90;99.90;;;;;;5094247;28;20385;-75
2020/12/03 04:17:29;;;;;;;112.75;44.80;;;0.80;99.90;;;;;;5094823;28;20024;-74
2020/12/03 04:19:56;;;;;;;184.30;66.13;;;0.90;99.90;;;;;;5094301;28;20036;-75
2020/12/03 04:22:23;;;;;;;131.45;50.97;;;0.80;99.90;;;;;;5095124;28;20028;-75
2020/12/03 04:24:49;;;;;;;102.70;41.78;;;0.90;99.90;;;;;;5092652;28;20040;-74
2020/12/03 04:27:16;;;;;;;79.47;31.42;;;0.90;99.90;;;;;;5094869;28;20456;-75
2020/12/03 04:29:42;;;;;;;74.00;34.72;;;0.90;99.90;;;;;;5092759;28;20495;-75
2020/12/03 04:32:08;;;;;;;143.55;55.58;;;0.90;99.90;;;;;;5094245;28;20059;-75
2020/12/03 04:34:34;;;;;;;129.38;52.08;;;0.90;99.90;;;;;;5094656;28;20035;-75
2020/12/03 04:37:01;;;;;;;111.97;42.30;;;0.90;99.90;;;;;;5093142;28;20036;-74
2020/12/03 04:39:27;;;;;;;92.45;37.67;;;0.90;99.90;;;;;;5094473;28;20043;-74
2020/12/03 04:41:53;;;;;;;86.78;36.10;;;0.90;99.90;;;;;;5093975;28;20027;-75
2020/12/03 04:44:27;;;;;;;91.35;37.20;;;0.90;99.90;;;;;;5093245;28;20039;-75
2020/12/03 04:47:11;;;;;;;99.28;40.65;;;0.90;99.90;;;;;;5093733;28;20035;-75
2020/12/03 04:49:51;;;;;;;108.72;44.83;;;0.90;99.90;;;;;;5094448;28;20043;-74
2020/12/03 04:52:48;;;;;;;98.68;39.40;;;0.90;99.90;;;;;;5094616;28;20384;-75
2020/12/03 04:55:50;;;;;;;82.70;34.65;;;0.90;99.90;;;;;;5093238;28;20032;-75
2020/12/03 04:58:23;;;;;;;;;;;0.90;99.90;;;;;;5093479;28;20039;-75
2020/12/03 05:01:27;;;;;;;69.30;27.88;;;0.90;99.90;;;;;;5093719;28;19927;-76
2020/12/03 05:04:03;;;;;;;62.83;28.38;;;0.90;99.90;;;;;;5089094;28;20040;-75
2020/12/03 05:06:53;;;;;;;88.35;38.65;;;0.90;99.90;;;;;;5093868;28;20039;-75
2020/12/03 05:09:41;;;;;;;76.30;32.63;;;0.90;99.90;;;;;;5094143;28;20461;-75
2020/12/03 05:12:22;;;;;;;108.65;45.35;;;0.90;99.90;;;;;;5094086;28;20024;-75
2020/12/03 05:14:50;;;;;;;;;;;0.90;99.90;;;;;;5094011;28;20049;-75
2020/12/03 05:17:34;;;;;;;78.32;30.80;;;0.90;99.90;;;;;;5092624;28;20365;-74
2020/12/03 05:20:40;;;;;;;79.43;33.53;;;0.90;99.90;;;;;;5093194;28;20354;-75
2020/12/03 05:23:16;;;;;;;110.95;46.15;;;0.90;99.90;;;;;;5093143;28;20040;-75
2020/12/03 05:25:44;;;;;;;220.73;96.05;;;0.90;99.90;;;;;;5093788;28;20043;-75
2020/12/03 05:28:46;;;;;;;79.15;33.67;;;0.90;99.90;;;;;;5093495;28;20492;-75
2020/12/03 05:31:17;;;;;;;87.93;37.70;;;0.90;99.90;;;;;;5093102;28;20413;-75
2020/12/03 05:33:44;;;;;;;79.30;36.67;;;0.90;99.90;;;;;;5092704;28;20044;-77
2020/12/03 05:36:29;;;;;;;114.93;51.25;;;0.90;99.90;;;;;;5093074;28;20457;-75
2020/12/03 05:38:57;;;;;;;117.00;49.90;;;0.90;99.90;;;;;;5092314;28;20035;-75
2020/12/03 05:41:25;;;;;;;83.55;35.10;;;0.90;99.90;;;;;;5092554;28;20051;-75
2020/12/03 05:43:51;;;;;;;109.20;47.28;;;0.90;99.90;;;;;;5092259;28;20480;-75
2020/12/03 05:46:21;;;;;;;67.97;31.25;;;0.90;99.90;;;;;;5093160;28;20028;-75
2020/12/03 05:49:05;;;;;;;145.50;56.55;;;1.00;99.90;;;;;;5092522;28;20039;-75
2020/12/03 05:51:33;;;;;;;81.65;38.65;;;1.00;99.90;;;;;;5093344;28;20035;-75
2020/12/03 05:54:04;;;;;;;71.13;29.10;;;1.00;99.90;;;;;;5092245;28;20035;-75
2020/12/03 05:56:31;;;;;;;62.67;29.73;;;1.00;99.90;;;;;;5093281;28;20453;-75
2020/12/03 05:59:33;;;;;;;81.88;33.08;;;1.00;99.90;;;;;;5091579;28;20059;-75
2020/12/03 06:02:40;;;;;;;71.80;30.02;;;1.00;99.90;;;;;;5013188;28;20045;-75
2020/12/03 06:05:25;;;;;;;66.38;29.17;;;1.00;99.90;;;;;;5091722;28;20028;-75
2020/12/03 06:08:47;;;;;;;109.50;47.15;;;1.00;99.90;;;;;;5073849;28;20047;-75
2020/12/03 06:11:29;;;;;;;73.18;33.75;;;1.00;99.90;;;;;;5050109;28;20037;-75
2020/12/03 06:14:11;;;;;;;65.80;28.20;;;1.00;99.90;;;;;;5092240;28;20039;-75
2020/12/03 06:16:40;;;;;;;62.10;29.88;;;1.00;99.90;;;;;;5092915;28;20472;-74
2020/12/03 06:19:09;;;;;;;97.90;43.05;;;1.00;99.90;;;;;;5091734;28;20035;-75
2020/12/03 06:21:51;;;;;;;69.88;30.20;;;0.90;99.90;;;;;;5092613;28;20040;-75
2020/12/03 06:25:10;;;;;;;74.07;34.58;;;1.00;99.90;;;;;;5091538;28;20040;-75
2020/12/03 06:28:06;;;;;;;66.53;29.40;;;0.90;99.90;;;;;;5088588;28;20040;-74
2020/12/03 06:30:42;;;;;;;73.53;34.03;;;0.90;99.90;;;;;;5089372;28;20027;-74
2020/12/03 06:33:14;;;;;;;75.40;34.83;;;0.90;99.90;;;;;;5090625;28;20578;-74
2020/12/03 06:35:53;;;;;;;69.47;31.33;;;0.90;99.90;;;;;;5092766;28;20043;-75
2020/12/03 06:38:29;;;;;;;67.95;33.28;;;0.90;99.90;;;;;;5091183;28;20032;-74
2020/12/03 06:41:54;;;;;;;70.03;32.22;;;0.90;99.90;;;;;;5091509;28;20047;-74
2020/12/03 06:44:45;;;;;;;65.47;29.38;;;0.90;99.90;;;;;;5049743;28;20037;-75
2020/12/03 06:47:41;;;;;;;69.38;29.33;;;0.90;99.90;;;;;;5032308;28;20044;-75
2020/12/03 06:50:26;;;;;;;67.45;29.90;;;0.90;99.90;;;;;;5084868;28;20056;-74
2020/12/03 06:53:18;;;;;;;69.57;30.05;;;0.90;99.90;;;;;;5091815;28;20032;-75
2020/12/03 06:56:01;;;;;;;79.68;31.25;;;0.90;99.90;;;;;;5092200;28;20030;-74
2020/12/03 06:58:36;;;;;;;70.97;32.17;;;0.90;99.90;;;;;;5093303;28;20020;-74
2020/12/03 07:01:17;;;;;;;79.35;31.83;;;0.90;99.90;;;;;;5095702;28;20044;-75
2020/12/03 07:04:19;;;;;;;73.28;31.60;;;0.90;99.90;;;;;;5096941;28;20043;-74
2020/12/03 07:07:07;;;;;;;160.32;62.25;;;1.00;99.90;;;;;;5096566;28;20039;-74
2020/12/03 07:10:01;;;;;;;121.25;53.42;;;1.00;99.90;;;;;;5096447;28;20047;-74
2020/12/03 07:12:56;;;;;;;166.45;72.35;;;1.00;99.90;;;;;;5095906;28;20378;-74
2020/12/03 07:15:40;;;;;;;108.20;48.67;;;1.00;99.90;;;;;;5096205;28;20453;-74
2020/12/03 07:18:34;;;;;;;85.93;39.40;;;1.00;99.90;;;;;;5095449;28;20396;-74
2020/12/03 07:21:16;;;;;;;129.80;60.20;;;1.00;99.90;;;;;;5095439;28;20047;-75
2020/12/03 07:24:05;;;;;;;81.40;39.15;;;1.00;99.90;;;;;;5096239;28;20031;-74
2020/12/03 07:27:10;;;;;;;88.45;36.28;;;1.10;99.90;;;;;;5095980;28;20043;-77
2020/12/03 07:29:57;;;;;;;78.38;34.97;;;1.10;99.90;;;;;;5081700;28;20044;-76
2020/12/03 07:32:32;;;;;;;79.13;33.45;;;1.10;99.90;;;;;;5095951;28;20059;-76
2020/12/03 07:35:19;;;;;;;77.28;34.67;;;1.20;99.90;;;;;;5094726;28;20386;-77
2020/12/03 07:38:00;;;;;;;78.03;35.45;;;1.10;99.90;;;;;;5095036;28;20032;-77
2020/12/03 07:40:26;;;;;;;138.95;69.03;;;1.20;99.90;;;;;;5096909;28;20045;-76
2020/12/03 07:43:19;;;;;;;89.45;47.95;;;1.20;99.90;;;;;;5095415;28;20039;-77
2020/12/03 07:45:49;;;;;;;75.90;33.45;;;1.10;99.90;;;;;;5099676;28;20105;-77
2020/12/03 07:48:33;;;;;;;78.22;31.80;;;1.20;99.90;;;;;;5100419;28;20034;-77
2020/12/03 07:51:02;;;;;;;63.80;30.20;;;1.20;99.90;;;;;;5097982;28;20039;-77
2020/12/03 07:53:32;;;;;;;67.45;30.90;;;1.20;99.90;;;;;;5095370;28;20508;-77
2020/12/03 07:56:19;;;;;;;80.88;31.33;;;1.20;99.90;;;;;;5096073;28;20036;-77
2020/12/03 07:58:45;;;;;;;66.90;30.20;;;1.20;99.90;;;;;;5095791;28;20052;-77
2020/12/03 08:01:26;;;;;;;73.63;32.50;;;1.20;99.90;;;;;;5095156;28;20215;-77
2020/12/03 08:03:57;;;;;;;63.50;31.77;;;1.20;99.90;;;;;;5095245;28;20028;-78
2020/12/03 08:06:38;;;;;;;70.75;31.85;;;1.20;99.90;;;;;;5095580;28;20380;-77
2020/12/03 08:09:04;;;;;;;72.53;32.17;;;1.20;99.90;;;;;;5094713;28;20362;-77
2020/12/03 08:12:05;;;;;;;69.90;30.90;;;1.30;99.90;;;;;;5094102;28;20036;-77
2020/12/03 08:14:34;;;;;;;68.00;31.50;;;1.30;99.90;;;;;;5095711;28;20376;-77
2020/12/03 08:17:03;;;;;;;71.10;30.15;;;1.30;99.90;;;;;;5093542;28;20039;-77
2020/12/03 08:19:34;;;;;;;65.63;30.38;;;1.30;99.90;;;;;;5093742;28;20035;-77
2020/12/03 08:22:01;;;;;;;69.10;29.77;;;1.30;99.90;;;;;;5093751;28;20032;-77
2020/12/03 08:24:32;;;;;;;62.13;31.60;;;1.40;99.90;;;;;;5095058;28;20373;-77
2020/12/03 08:27:04;;;;;;;60.92;29.77;;;1.40;99.90;;;;;;5094614;28;20028;-77
2020/12/03 08:29:37;;;;;;;66.43;29.63;;;1.50;99.90;;;;;;5095303;28;20028;-77
2020/12/03 08:32:03;;;;;;;72.72;30.73;;;1.50;99.90;;;;;;5092951;28;20480;-78
2020/12/03 08:34:33;;;;;;;67.20;31.10;;;1.50;99.90;;;;;;5095479;28;20032;-77
2020/12/03 08:37:00;;;;;;;62.95;29.67;;;1.50;99.90;;;;;;5094032;28;20028;-77
2020/12/03 08:39:27;;;;;;;67.15;28.75;;;1.50;99.90;;;;;;5095212;28;20031;-77
2020/12/03 08:41:54;;;;;;;63.67;30.55;;;1.50;99.90;;;;;;5093680;28;20028;-77
2020/12/03 08:44:20;;;;;;;59.90;29.25;;;1.50;99.90;;;;;;5094892;28;20404;-77
2020/12/03 08:46:50;;;;;;;68.78;29.58;;;1.50;99.90;;;;;;5094755;28;20344;-78
2020/12/03 08:49:23;;;;;;;58.15;29.08;;;1.60;99.90;;;;;;5092425;28;20039;-77
2020/12/03 08:51:58;;;;;;;60.47;27.65;;;1.70;99.90;;;;;;5093415;28;20047;-77
2020/12/03 08:54:26;;;;;;;55.35;26.55;;;1.70;99.90;;;;;;5094799;28;20032;-76
2020/12/03 08:57:03;;;;;;;53.42;27.38;;;1.80;99.90;;;;;;5094640;28;20396;-76
2020/12/03 08:59:34;;;;;;;52.00;25.33;;;1.90;99.90;;;;;;5094896;28;20039;-77
2020/12/03 09:02:09;;;;;;;56.03;26.27;;;1.90;99.90;;;;;;5094032;28;20036;-76
2020/12/03 09:04:38;;;;;;;53.95;27.13;;;1.90;99.90;;;;;;5094734;28;20496;-77
2020/12/03 09:07:07;;;;;;;50.60;25.58;;;2.00;99.90;;;;;;5093722;28;20040;-76
2020/12/03 09:09:37;;;;;;;47.97;26.70;;;2.00;99.90;;;;;;5094166;28;20039;-77
2020/12/03 09:12:07;;;;;;;51.25;26.50;;;2.10;99.90;;;;;;5094269;28;20024;-77
2020/12/03 09:14:36;;;;;;;51.30;25.60;;;2.00;99.90;;;;;;5096069;28;20032;-78
2020/12/03 09:17:09;;;;;;;56.20;26.75;;;2.00;99.90;;;;;;5094581;28;20035;-78
2020/12/03 09:19:36;;;;;;;52.17;26.10;;;2.10;99.90;;;;;;5095206;28;20032;-78
2020/12/03 09:22:03;;;;;;;50.92;25.85;;;2.10;99.90;;;;;;5095836;28;20382;-78
2020/12/03 09:24:29;;;;;;;46.22;24.98;;;2.20;99.90;;;;;;5093695;28;20033;-78
2020/12/03 09:27:01;;;;;;;45.42;24.05;;;2.20;99.90;;;;;;5095482;28;20028;-78
2020/12/03 09:29:27;;;;;;;45.40;25.15;;;2.30;99.90;;;;;;5095948;28;20039;-78
2020/12/03 09:32:02;;;;;;;44.08;23.80;;;2.30;99.90;;;;;;5094296;28;20052;-78
2020/12/03 09:34:32;;;;;;;46.67;24.85;;;2.30;99.90;;;;;;5094664;28;20040;-77
2020/12/03 09:37:01;;;;;;;48.90;24.70;;;2.30;99.90;;;;;;5093056;28;20389;-78
2020/12/03 09:39:29;;;;;;;45.60;24.00;;;2.30;99.90;;;;;;5093356;28;20043;-78
2020/12/03 09:41:56;;;;;;;51.55;24.38;;;2.40;99.90;;;;;;5093748;28;20040;-78
2020/12/03 09:44:23;;;;;;;47.50;24.27;;;2.40;99.90;;;;;;5094180;28;20377;-78
2020/12/03 09:46:52;;;;;;;46.63;22.75;;;2.40;99.90;;;;;;5093931;28;20397;-78
2020/12/03 09:49:19;;;;;;;47.33;23.52;;;2.40;99.90;;;;;;5093111;28;20032;-78
2020/12/03 09:51:46;;;;;;;41.13;22.13;;;2.40;99.90;;;;;;5093831;28;20036;-78
2020/12/03 09:54:13;;;;;;;47.45;22.92;;;2.50;99.90;;;;;;5091706;28;20473;-78
2020/12/03 09:56:40;;;;;;;45.75;23.80;;;2.50;99.90;;;;;;5094318;28;20028;-77
2020/12/03 09:59:07;;;;;;;43.50;22.77;;;2.50;99.90;;;;;;5092184;28;20044;-77
2020/12/03 10:02:04;;;;;;;46.40;24.02;;;2.50;99.90;;;;;;5092342;28;20052;-78
2020/12/03 10:04:42;;;;;;;45.30;23.02;;;2.50;99.90;;;;;;5095156;28;20036;-78
2020/12/03 10:07:27;;;;;;;42.17;21.98;;;2.50;99.90;;;;;;5094406;28;20028;-77
2020/12/03 10:10:27;;;;;;;46.28;22.33;;;2.50;99.90;;;;;;5094099;28;20389;-77
2020/12/03 10:13:11;;;;;;;40.35;21.20;;;2.60;99.90;;;;;;5094107;28;20031;-77
2020/12/03 10:16:07;;;;;;;41.35;23.58;;;2.60;99.90;;;;;;5093604;28;20048;-78
2020/12/03 10:18:55;;;;;;;41.92;22.88;;;2.70;99.90;;;;;;5093923;28;20377;-78
2020/12/03 10:21:23;;;;;;;41.10;22.98;;;2.70;99.90;;;;;;5093034;28;20043;-77
2020/12/03 10:23:56;;;;;;;43.30;21.90;;;2.70;99.90;;;;;;5094141;28;20028;-78
2020/12/03 10:26:40;;;;;;;37.95;21.73;;;2.70;99.90;;;;;;5094571;28;20481;-77
2020/12/03 10:29:13;;;;;;;36.63;20.73;;;2.80;99.90;;;;;;5093433;28;20047;-77
2020/12/03 10:31:42;;;;;;;38.50;20.60;;;2.80;99.90;;;;;;5095872;28;20473;-78
2020/12/03 10:34:12;;;;;;;45.88;24.02;;;2.80;99.90;;;;;;5102272;28;20048;-78
2020/12/03 10:36:50;;;;;;;39.60;20.55;;;2.70;99.90;;;;;;5100959;28;20043;-78
2020/12/03 10:39:18;;;;;;;36.03;20.70;;;2.70;99.90;;;;;;5094603;28;20031;-78
2020/12/03 10:41:50;;;;;;;37.55;20.05;;;2.70;99.90;;;;;;5094482;28;20040;-78
2020/12/03 10:44:19;;;;;;;35.25;19.75;;;2.70;99.90;;;;;;5092859;28;20374;-77
2020/12/03 10:46:50;;;;;;;41.13;20.60;;;2.70;99.90;;;;;;5093424;28;20039;-77
2020/12/03 10:49:21;;;;;;;51.88;27.60;;;2.70;99.90;;;;;;5091928;28;20028;-77
2020/12/03 10:51:48;;;;;;;60.10;31.73;;;2.60;99.90;;;;;;5091509;28;20036;-78
2020/12/03 10:54:19;;;;;;;36.83;20.23;;;2.70;99.90;;;;;;5093034;28;20031;-78
2020/12/03 10:56:50;;;;;;;98.57;48.67;;;2.70;99.90;;;;;;5091377;28;20408;-78
2020/12/03 10:59:29;;;;;;;;;;;2.80;99.90;;;;;;5092671;28;20051;-78
2020/12/03 11:01:57;;;;;;;60.33;28.95;;;2.80;99.90;;;;;;5093325;28;20031;-77
2020/12/03 11:04:24;;;;;;;57.83;27.83;;;2.90;99.90;;;;;;5092670;28;20388;-77
2020/12/03 11:06:51;;;;;;;75.20;31.55;;;2.80;99.90;;;;;;5092873;28;20028;-77
2020/12/03 11:09:20;;;;;;;159.90;65.68;;;2.80;99.90;;;;;;5093371;28;20493;-77
2020/12/03 11:11:49;;;;;;;217.65;92.85;;;2.90;99.90;;;;;;5092674;28;20408;-78
2020/12/03 11:14:17;;;;;;;61.22;32.53;;;2.90;99.90;;;;;;5091998;28;20036;-77
2020/12/03 11:16:44;;;;;;;111.18;48.53;;;2.90;99.90;;;;;;5092605;28;20036;-76
2020/12/03 11:19:15;;;;;;;125.57;52.88;;;3.00;99.90;;;;;;5091630;28;20032;-77
2020/12/03 11:22:02;;;;;;;61.25;28.85;;;3.00;99.90;;;;;;5092724;28;20032;-77
2020/12/03 11:24:37;;;;;;;322.73;128.82;;;3.00;99.90;;;;;;5092196;28;20054;-78
2020/12/03 11:27:04;;;;;;;53.90;29.73;;;3.10;99.90;;;;;;5092948;28;20386;-77
2020/12/03 11:29:35;;;;;;;266.98;95.93;;;3.10;99.90;;;;;;5092281;28;20028;-77
2020/12/03 11:32:02;;;;;;;134.75;48.63;;;3.10;99.90;;;;;;5092178;28;20063;-77
2020/12/03 11:34:39;;;;;;;170.82;63.75;;;3.10;99.90;;;;;;5091477;28;20031;-77
2020/12/03 11:37:06;;;;;;;37.47;20.90;;;3.20;99.90;;;;;;5091782;28;20047;-77
2020/12/03 11:39:32;;;;;;;153.43;69.25;;;3.20;99.90;;;;;;5092466;28;20036;-77
2020/12/03 11:42:39;;;;;;;258.05;114.93;;;3.20;99.90;;;;;;5092493;28;20040;-77
2020/12/03 11:50:25;;;;;;;53.33;24.85;;;3.20;99.90;;;;;;5095913;28;20236;-77
2020/12/03 11:52:59;;;;;;;144.93;61.67;;;3.20;99.90;;;;;;5096087;28;20031;-78
2020/12/03 11:55:25;;;;;;;58.40;31.13;;;3.20;99.90;;;;;;5095615;28;20343;-78
2020/12/03 11:58:02;;;;;;;31.08;17.33;;;3.30;99.90;;;;;;5094400;28;20032;-77
2020/12/03 12:00:29;;;;;;;175.98;76.47;;;3.40;99.90;;;;;;5094530;28;20048;-78
2020/12/03 12:02:55;;;;;;;59.70;27.80;;;3.40;99.90;;;;;;5096079;28;20040;-78
2020/12/03 12:08:06;;;;;;;112.00;47.20;;;3.40;99.90;;;;;;5096380;28;20036;-77
2020/12/03 12:10:37;;;;;;;69.70;32.55;;;3.40;99.90;;;;;;5096205;28;20040;-77
2020/12/03 12:13:03;;;;;;;70.30;30.35;;;3.50;99.90;;;;;;5096215;28;20032;-78
2020/12/03 12:15:30;;;;;;;66.80;26.80;;;3.40;99.90;;;;;;5095721;28;20385;-77
2020/12/03 12:17:56;;;;;;;38.50;18.60;;;3.40;99.90;;;;;;5093955;28;20032;-78
2020/12/03 12:20:23;;;;;;;69.47;30.85;;;3.40;99.90;;;;;;5094145;28;20031;-76
2020/12/03 12:22:49;;;;;;;62.92;28.80;;;3.40;99.90;;;;;;5095633;28;20035;-78
2020/12/03 12:25:16;;;;;;;67.22;31.88;;;3.40;99.90;;;;;;5094769;28;20480;-78
2020/12/03 12:27:42;;;;;;;32.40;18.30;;;3.40;99.90;;;;;;5095538;28;20036;-78
2020/12/03 12:30:08;;;;;;;68.47;35.10;;;3.40;99.90;;;;;;5094702;28;20028;-77
2020/12/03 12:32:34;;;;;;;63.60;32.00;;;3.50;99.90;;;;;;5095329;28;20048;-78
2020/12/03 12:35:01;;;;;;;32.85;18.98;;;3.50;99.90;;;;;;5098035;28;20047;-78
2020/12/03 12:37:27;;;;;;;31.67;18.25;;;3.40;99.90;;;;;;5095297;28;20039;-77
2020/12/03 12:39:54;;;;;;;35.83;17.05;;;3.50;99.90;;;;;;5094948;28;20465;-77
2020/12/03 12:42:26;;;;;;;38.65;19.58;;;3.50;99.90;;;;;;5092902;28;20044;-77
2020/12/03 12:44:53;;;;;;;56.13;28.58;;;3.50;99.90;;;;;;5093828;28;20453;-78
2020/12/03 12:47:20;;;;;;;48.10;22.88;;;3.60;99.90;;;;;;5092751;28;20039;-77
2020/12/03 12:49:46;;;;;;;67.05;30.92;;;3.60;99.90;;;;;;5094743;28;20059;-78
2020/12/03 12:52:12;;;;;;;49.25;26.10;;;3.60;99.90;;;;;;5094396;28;20381;-78
2020/12/03 12:54:39;;;;;;;31.20;18.13;;;3.70;99.90;;;;;;5095948;28;20488;-78
2020/12/03 12:57:05;;;;;;;64.60;33.97;;;3.60;99.90;;;;;;5093640;28;20043;-78
2020/12/03 12:59:31;;;;;;;49.03;25.13;;;3.70;99.90;;;;;;5095672;28;20039;-77
2020/12/03 13:01:57;;;;;;;28.98;14.70;;;3.70;99.90;;;;;;5095038;28;20040;-78
2020/12/03 13:04:24;;;;;;;36.30;17.98;;;3.80;99.90;;;;;;5092548;28;20040;-77
2020/12/03 13:06:56;;;;;;;26.75;14.60;;;3.80;99.90;;;;;;5093941;28;20032;-77
2020/12/03 13:09:24;;;;;;;29.70;16.90;;;3.80;99.90;;;;;;5093017;28;20039;-76